sensor_id;sensor_type;location;lat;lon;timestamp;pressure;altitude;pressure_sealevel;temperature;humidity
55540;BME280;41384;51.418;7.286;2022-07-21T00:02:04;100132.03;;;22.66;94.16
55540;BME280;41384;51.418;7.286;2022-07-21T00:04:30;100125.75;;;22.76;89.96
55540;BME280;41384;51.418;7.286;2022-07-21T00:06:55;100122.66;;;22.58;92.88
55540;BME280;41384;51.418;7.286;2022-07-21T00:09:20;100117.38;;;22.83;89.99
55540;BME280;41384;51.418;7.286;2022-07-21T00:11:45;100126.59;;;22.71;89.08
55540;BME280;41384;51.418;7.286;2022-07-21T00:14:11;100128.31;;;22.52;91.32
55540;BME280;41384;51.418;7.286;2022-07-21T00:16:38;100118.25;;;22.73;89.65
55540;BME280;41384;51.418;7.286;2022-07-21T00:19:04;100119.56;;;22.76;89.00
55540;BME280;41384;51.418;7.286;2022-07-21T00:21:30;100112.75;;;22.43;91.31
55540;BME280;41384;51.418;7.286;2022-07-21T00:23:55;100115.09;;;22.10;93.87
55540;BME280;41384;51.418;7.286;2022-07-21T00:26:21;100106.22;;;22.10;94.88
55540;BME280;41384;51.418;7.286;2022-07-21T00:28:46;100100.84;;;22.05;94.67
55540;BME280;41384;51.418;7.286;2022-07-21T00:31:12;100085.78;;;22.09;94.13
55540;BME280;41384;51.418;7.286;2022-07-21T00:33:37;100081.09;;;21.80;97.62
55540;BME280;41384;51.418;7.286;2022-07-21T00:36:02;100078.19;;;21.71;98.38
55540;BME280;41384;51.418;7.286;2022-07-21T00:38:28;100073.81;;;21.85;97.31
55540;BME280;41384;51.418;7.286;2022-07-21T00:40:53;100080.69;;;22.07;95.12
55540;BME280;41384;51.418;7.286;2022-07-21T00:43:19;100081.81;;;22.51;91.38
55540;BME280;41384;51.418;7.286;2022-07-21T00:45:44;100086.88;;;22.13;94.00
55540;BME280;41384;51.418;7.286;2022-07-21T00:48:10;100087.28;;;22.30;92.23
55540;BME280;41384;51.418;7.286;2022-07-21T00:50:35;100093.84;;;22.64;89.12
55540;BME280;41384;51.418;7.286;2022-07-21T00:53:00;100096.59;;;22.49;89.53
55540;BME280;41384;51.418;7.286;2022-07-21T00:55:26;100099.28;;;22.49;89.09
55540;BME280;41384;51.418;7.286;2022-07-21T00:57:53;100099.03;;;22.50;88.86
55540;BME280;41384;51.418;7.286;2022-07-21T01:00:24;100102.19;;;22.07;92.39
55540;BME280;41384;51.418;7.286;2022-07-21T01:02:51;100110.72;;;22.20;93.25
55540;BME280;41384;51.418;7.286;2022-07-21T01:05:17;100107.38;;;22.49;89.65
55540;BME280;41384;51.418;7.286;2022-07-21T01:07:46;100113.25;;;22.51;88.48
55540;BME280;41384;51.418;7.286;2022-07-21T01:10:14;100120.16;;;22.17;90.31
55540;BME280;41384;51.418;7.286;2022-07-21T01:12:40;100110.84;;;21.99;91.42
55540;BME280;41384;51.418;7.286;2022-07-21T01:15:07;100102.22;;;22.02;89.95
55540;BME280;41384;51.418;7.286;2022-07-21T01:17:33;100101.06;;;22.19;89.13
55540;BME280;41384;51.418;7.286;2022-07-21T01:20:05;100101.47;;;22.41;87.62
55540;BME280;41384;51.418;7.286;2022-07-21T01:22:32;100106.19;;;22.65;85.53
55540;BME280;41384;51.418;7.286;2022-07-21T01:24:58;100118.13;;;22.43;86.29
55540;BME280;41384;51.418;7.286;2022-07-21T01:27:26;100106.72;;;22.17;87.19
55540;BME280;41384;51.418;7.286;2022-07-21T01:29:52;100111.91;;;21.98;90.81
55540;BME280;41384;51.418;7.286;2022-07-21T01:32:18;100116.09;;;22.25;88.57
55540;BME280;41384;51.418;7.286;2022-07-21T01:34:43;100132.41;;;22.39;87.93
55540;BME280;41384;51.418;7.286;2022-07-21T01:37:08;100122.28;;;22.25;89.12
55540;BME280;41384;51.418;7.286;2022-07-21T01:39:33;100126.84;;;22.25;88.61
55540;BME280;41384;51.418;7.286;2022-07-21T01:42:17;100124.13;;;22.30;88.05
55540;BME280;41384;51.418;7.286;2022-07-21T01:44:43;100127.72;;;22.15;88.23
55540;BME280;41384;51.418;7.286;2022-07-21T01:47:08;100129.81;;;22.23;87.45
55540;BME280;41384;51.418;7.286;2022-07-21T01:49:33;100136.59;;;22.10;88.44
55540;BME280;41384;51.418;7.286;2022-07-21T01:51:58;100125.25;;;22.19;88.05
55540;BME280;41384;51.418;7.286;2022-07-21T01:54:25;100131.91;;;21.50;90.38
55540;BME280;41384;51.418;7.286;2022-07-21T01:56:51;100127.59;;;21.75;90.07
55540;BME280;41384;51.418;7.286;2022-07-21T01:59:17;100131.06;;;21.76;91.27
55540;BME280;41384;51.418;7.286;2022-07-21T02:01:42;100121.13;;;21.76;88.60
55540;BME280;41384;51.418;7.286;2022-07-21T02:04:07;100115.72;;;21.86;88.14
55540;BME280;41384;51.418;7.286;2022-07-21T02:06:33;100108.19;;;21.89;87.45
55540;BME280;41384;51.418;7.286;2022-07-21T02:08:59;100109.50;;;21.91;86.44
55540;BME280;41384;51.418;7.286;2022-07-21T02:11:24;100113.34;;;21.69;89.37
55540;BME280;41384;51.418;7.286;2022-07-21T02:13:50;100110.69;;;21.64;87.66
55540;BME280;41384;51.418;7.286;2022-07-21T02:16:15;100120.38;;;21.39;88.04
55540;BME280;41384;51.418;7.286;2022-07-21T02:18:41;100132.44;;;21.47;87.59
55540;BME280;41384;51.418;7.286;2022-07-21T02:21:07;100134.03;;;21.58;88.33
55540;BME280;41384;51.418;7.286;2022-07-21T02:23:33;100131.38;;;21.48;89.00
55540;BME280;41384;51.418;7.286;2022-07-21T02:25:59;100131.09;;;21.65;88.30
55540;BME280;41384;51.418;7.286;2022-07-21T02:28:25;100127.34;;;21.56;89.29
55540;BME280;41384;51.418;7.286;2022-07-21T02:30:50;100118.97;;;21.63;87.67
55540;BME280;41384;51.418;7.286;2022-07-21T02:33:16;100119.53;;;21.49;88.55
55540;BME280;41384;51.418;7.286;2022-07-21T02:35:42;100116.28;;;21.78;86.61
55540;BME280;41384;51.418;7.286;2022-07-21T02:38:08;100119.81;;;21.68;86.96
55540;BME280;41384;51.418;7.286;2022-07-21T02:40:34;100124.94;;;21.44;91.07
55540;BME280;41384;51.418;7.286;2022-07-21T02:43:00;100125.97;;;21.58;88.73
55540;BME280;41384;51.418;7.286;2022-07-21T02:45:25;100126.84;;;21.28;89.15
55540;BME280;41384;51.418;7.286;2022-07-21T02:47:55;100122.78;;;21.46;88.22
55540;BME280;41384;51.418;7.286;2022-07-21T02:50:22;100125.19;;;21.53;87.91
55540;BME280;41384;51.418;7.286;2022-07-21T02:52:48;100119.00;;;21.52;87.96
55540;BME280;41384;51.418;7.286;2022-07-21T02:55:15;100117.72;;;21.29;90.70
55540;BME280;41384;51.418;7.286;2022-07-21T02:57:40;100118.53;;;21.24;92.02
55540;BME280;41384;51.418;7.286;2022-07-21T03:00:08;100112.06;;;21.36;88.62
55540;BME280;41384;51.418;7.286;2022-07-21T03:02:33;100110.22;;;21.21;89.84
55540;BME280;41384;51.418;7.286;2022-07-21T03:04:59;100112.06;;;21.31;89.03
55540;BME280;41384;51.418;7.286;2022-07-21T03:07:24;100103.44;;;21.44;88.54
55540;BME280;41384;51.418;7.286;2022-07-21T03:09:49;100107.50;;;21.31;88.10
55540;BME280;41384;51.418;7.286;2022-07-21T03:12:15;100106.69;;;21.36;88.12
55540;BME280;41384;51.418;7.286;2022-07-21T03:14:40;100102.69;;;21.07;90.01
55540;BME280;41384;51.418;7.286;2022-07-21T03:17:05;100101.59;;;21.34;89.25
55540;BME280;41384;51.418;7.286;2022-07-21T03:19:30;100093.56;;;21.13;89.95
55540;BME280;41384;51.418;7.286;2022-07-21T03:21:56;100098.94;;;21.29;88.15
55540;BME280;41384;51.418;7.286;2022-07-21T03:24:21;100103.22;;;21.09;90.09
55540;BME280;41384;51.418;7.286;2022-07-21T03:26:46;100098.94;;;21.03;90.58
55540;BME280;41384;51.418;7.286;2022-07-21T03:29:12;100102.16;;;21.21;89.54
55540;BME280;41384;51.418;7.286;2022-07-21T03:31:37;100097.06;;;21.09;91.01
55540;BME280;41384;51.418;7.286;2022-07-21T03:34:02;100097.88;;;21.25;88.97
55540;BME280;41384;51.418;7.286;2022-07-21T03:36:27;100093.31;;;21.10;90.02
55540;BME280;41384;51.418;7.286;2022-07-21T03:38:53;100078.00;;;21.21;89.03
55540;BME280;41384;51.418;7.286;2022-07-21T03:41:18;100077.75;;;21.07;91.24
55540;BME280;41384;51.418;7.286;2022-07-21T03:43:43;100071.81;;;21.31;89.54
55540;BME280;41384;51.418;7.286;2022-07-21T03:46:09;100066.47;;;21.15;89.45
55540;BME280;41384;51.418;7.286;2022-07-21T03:48:34;100064.06;;;20.98;91.89
55540;BME280;41384;51.418;7.286;2022-07-21T03:50:59;100064.03;;;21.08;90.98
55540;BME280;41384;51.418;7.286;2022-07-21T03:53:24;100056.03;;;20.88;90.98
55540;BME280;41384;51.418;7.286;2022-07-21T03:55:50;100053.59;;;21.02;90.79
55540;BME280;41384;51.418;7.286;2022-07-21T03:58:15;100057.91;;;20.87;90.67
55540;BME280;41384;51.418;7.286;2022-07-21T04:00:42;100042.56;;;21.13;90.04
55540;BME280;41384;51.418;7.286;2022-07-21T04:03:09;100046.84;;;21.20;89.36
55540;BME280;41384;51.418;7.286;2022-07-21T04:05:35;100025.94;;;21.22;89.57
55540;BME280;41384;51.418;7.286;2022-07-21T04:08:02;100024.59;;;20.47;95.42
55540;BME280;41384;51.418;7.286;2022-07-21T04:10:30;100017.63;;;20.56;96.61
55540;BME280;41384;51.418;7.286;2022-07-21T04:12:59;100017.63;;;20.66;95.49
55540;BME280;41384;51.418;7.286;2022-07-21T04:15:24;100022.47;;;20.69;95.77
55540;BME280;41384;51.418;7.286;2022-07-21T04:17:50;100027.84;;;21.06;92.49
55540;BME280;41384;51.418;7.286;2022-07-21T04:20:16;100036.94;;;21.15;91.45
55540;BME280;41384;51.418;7.286;2022-07-21T04:22:43;100042.06;;;21.01;92.15
55540;BME280;41384;51.418;7.286;2022-07-21T04:25:09;100045.78;;;21.10;91.34
55540;BME280;41384;51.418;7.286;2022-07-21T04:27:36;100031.03;;;21.13;91.13
55540;BME280;41384;51.418;7.286;2022-07-21T04:30:03;100034.50;;;21.13;90.02
55540;BME280;41384;51.418;7.286;2022-07-21T04:32:29;100031.03;;;21.18;90.77
55540;BME280;41384;51.418;7.286;2022-07-21T04:34:54;100040.97;;;21.07;90.68
55540;BME280;41384;51.418;7.286;2022-07-21T04:37:19;100036.63;;;21.37;89.13
55540;BME280;41384;51.418;7.286;2022-07-21T04:39:45;100040.94;;;21.28;89.09
55540;BME280;41384;51.418;7.286;2022-07-21T04:42:10;100032.84;;;21.43;89.32
55540;BME280;41384;51.418;7.286;2022-07-21T04:44:35;100030.91;;;21.60;88.03
55540;BME280;41384;51.418;7.286;2022-07-21T04:47:01;100030.91;;;21.54;88.64
55540;BME280;41384;51.418;7.286;2022-07-21T04:49:26;100040.06;;;21.53;89.02
55540;BME280;41384;51.418;7.286;2022-07-21T04:51:51;100038.41;;;21.57;89.01
55540;BME280;41384;51.418;7.286;2022-07-21T04:54:16;100048.63;;;21.61;88.47
55540;BME280;41384;51.418;7.286;2022-07-21T04:56:42;100053.81;;;21.31;90.65
55540;BME280;41384;51.418;7.286;2022-07-21T04:59:08;100046.81;;;21.46;89.25
55540;BME280;41384;51.418;7.286;2022-07-21T05:01:34;100054.28;;;21.54;88.87
55540;BME280;41384;51.418;7.286;2022-07-21T05:04:00;100051.03;;;21.67;88.03
55540;BME280;41384;51.418;7.286;2022-07-21T05:06:25;100062.88;;;21.66;88.98
55540;BME280;41384;51.418;7.286;2022-07-21T05:08:51;100058.28;;;21.56;89.05
55540;BME280;41384;51.418;7.286;2022-07-21T05:11:16;100065.81;;;21.65;88.32
55540;BME280;41384;51.418;7.286;2022-07-21T05:13:41;100060.19;;;21.56;88.58
55540;BME280;41384;51.418;7.286;2022-07-21T05:16:07;100057.19;;;21.63;88.63
55540;BME280;41384;51.418;7.286;2022-07-21T05:18:32;100052.38;;;21.75;88.04
55540;BME280;41384;51.418;7.286;2022-07-21T05:20:58;100064.47;;;21.62;88.33
55540;BME280;41384;51.418;7.286;2022-07-21T05:23:23;100055.38;;;21.63;88.21
55540;BME280;41384;51.418;7.286;2022-07-21T05:25:48;100054.34;;;21.33;89.44
55540;BME280;41384;51.418;7.286;2022-07-21T05:28:14;100050.06;;;21.37;89.05
55540;BME280;41384;51.418;7.286;2022-07-21T05:30:39;100049.72;;;21.49;89.34
55540;BME280;41384;51.418;7.286;2022-07-21T05:33:04;100062.06;;;21.71;88.03
55540;BME280;41384;51.418;7.286;2022-07-21T05:35:29;100062.03;;;21.61;88.48
55540;BME280;41384;51.418;7.286;2022-07-21T05:37:55;100065.81;;;21.75;88.16
55540;BME280;41384;51.418;7.286;2022-07-21T05:40:21;100075.75;;;21.59;88.40
55540;BME280;41384;51.418;7.286;2022-07-21T05:42:46;100071.75;;;21.67;87.60
55540;BME280;41384;51.418;7.286;2022-07-21T05:45:11;100070.06;;;21.81;87.32
55540;BME280;41384;51.418;7.286;2022-07-21T05:47:37;100079.53;;;21.53;89.23
55540;BME280;41384;51.418;7.286;2022-07-21T05:50:03;100067.16;;;21.62;89.14
55540;BME280;41384;51.418;7.286;2022-07-21T05:52:28;100067.94;;;21.78;87.55
55540;BME280;41384;51.418;7.286;2022-07-21T05:54:54;100073.31;;;21.63;88.50
55540;BME280;41384;51.418;7.286;2022-07-21T05:57:19;100069.56;;;21.74;88.01
55540;BME280;41384;51.418;7.286;2022-07-21T05:59:45;100064.66;;;21.92;87.48
55540;BME280;41384;51.418;7.286;2022-07-21T06:02:10;100068.50;;;21.54;89.55
55540;BME280;41384;51.418;7.286;2022-07-21T06:04:36;100072.00;;;21.55;88.80
55540;BME280;41384;51.418;7.286;2022-07-21T06:07:01;100079.44;;;21.89;87.64
55540;BME280;41384;51.418;7.286;2022-07-21T06:09:26;100070.75;;;22.13;86.86
55540;BME280;41384;51.418;7.286;2022-07-21T06:11:51;100069.44;;;22.50;83.50
55540;BME280;41384;51.418;7.286;2022-07-21T06:14:17;100064.84;;;22.11;83.92
55540;BME280;41384;51.418;7.286;2022-07-21T06:16:42;100068.13;;;22.42;83.13
55540;BME280;41384;51.418;7.286;2022-07-21T06:19:07;100067.19;;;22.18;85.10
55540;BME280;41384;51.418;7.286;2022-07-21T06:21:33;100072.19;;;21.90;86.69
55540;BME280;41384;51.418;7.286;2022-07-21T06:23:58;100078.63;;;21.89;86.04
55540;BME280;41384;51.418;7.286;2022-07-21T06:26:24;100086.50;;;21.69;87.39
55540;BME280;41384;51.418;7.286;2022-07-21T06:28:49;100081.59;;;21.82;86.02
55540;BME280;41384;51.418;7.286;2022-07-21T06:31:14;100078.94;;;22.32;84.10
55540;BME280;41384;51.418;7.286;2022-07-21T06:33:40;100081.44;;;22.68;82.42
55540;BME280;41384;51.418;7.286;2022-07-21T06:36:06;100092.53;;;22.56;81.46
55540;BME280;41384;51.418;7.286;2022-07-21T06:38:32;100090.78;;;22.31;83.73
55540;BME280;41384;51.418;7.286;2022-07-21T06:40:57;100099.09;;;21.79;87.04
55540;BME280;41384;51.418;7.286;2022-07-21T06:43:22;100089.56;;;22.02;86.59
55540;BME280;41384;51.418;7.286;2022-07-21T06:45:47;100096.41;;;21.84;86.61
55540;BME280;41384;51.418;7.286;2022-07-21T06:48:13;100098.19;;;21.99;85.89
55540;BME280;41384;51.418;7.286;2022-07-21T06:50:39;100099.50;;;22.07;85.00
55540;BME280;41384;51.418;7.286;2022-07-21T06:53:05;100100.50;;;22.22;84.24
55540;BME280;41384;51.418;7.286;2022-07-21T06:55:31;100099.69;;;22.26;84.43
55540;BME280;41384;51.418;7.286;2022-07-21T06:57:56;100104.16;;;22.47;83.69
55540;BME280;41384;51.418;7.286;2022-07-21T07:00:22;100099.22;;;22.09;85.57
55540;BME280;41384;51.418;7.286;2022-07-21T07:02:48;100101.75;;;22.40;83.72
55540;BME280;41384;51.418;7.286;2022-07-21T07:05:13;100104.47;;;22.80;81.27
55540;BME280;41384;51.418;7.286;2022-07-21T07:07:39;100106.88;;;22.36;82.08
55540;BME280;41384;51.418;7.286;2022-07-21T07:10:05;100103.69;;;22.74;82.07
55540;BME280;41384;51.418;7.286;2022-07-21T07:12:30;100099.00;;;22.55;80.94
55540;BME280;41384;51.418;7.286;2022-07-21T07:14:55;100093.31;;;22.62;80.27
55540;BME280;41384;51.418;7.286;2022-07-21T07:17:21;100093.97;;;23.13;78.44
55540;BME280;41384;51.418;7.286;2022-07-21T07:19:47;100092.59;;;22.86;79.20
55540;BME280;41384;51.418;7.286;2022-07-21T07:22:13;100083.94;;;22.89;77.93
55540;BME280;41384;51.418;7.286;2022-07-21T07:24:38;100095.31;;;22.81;78.90
55540;BME280;41384;51.418;7.286;2022-07-21T07:27:04;100089.41;;;22.79;79.23
55540;BME280;41384;51.418;7.286;2022-07-21T07:29:29;100094.47;;;23.15;77.94
55540;BME280;41384;51.418;7.286;2022-07-21T07:31:56;100094.22;;;22.82;78.60
55540;BME280;41384;51.418;7.286;2022-07-21T07:34:21;100100.31;;;22.98;78.15
55540;BME280;41384;51.418;7.286;2022-07-21T07:36:47;100105.72;;;22.58;80.34
55540;BME280;41384;51.418;7.286;2022-07-21T07:39:12;100105.94;;;22.62;80.34
55540;BME280;41384;51.418;7.286;2022-07-21T07:41:38;100113.59;;;22.84;79.82
55540;BME280;41384;51.418;7.286;2022-07-21T07:44:04;100105.00;;;22.82;79.82
55540;BME280;41384;51.418;7.286;2022-07-21T07:46:29;100110.81;;;22.94;81.16
55540;BME280;41384;51.418;7.286;2022-07-21T07:48:54;100112.19;;;22.52;81.78
55540;BME280;41384;51.418;7.286;2022-07-21T07:51:20;100104.69;;;22.83;79.82
55540;BME280;41384;51.418;7.286;2022-07-21T07:53:46;100107.59;;;22.57;79.72
55540;BME280;41384;51.418;7.286;2022-07-21T07:56:11;100105.59;;;22.73;79.04
55540;BME280;41384;51.418;7.286;2022-07-21T07:58:36;100099.84;;;22.40;77.36
55540;BME280;41384;51.418;7.286;2022-07-21T08:01:02;100097.63;;;22.93;76.35
55540;BME280;41384;51.418;7.286;2022-07-21T08:03:27;100099.06;;;23.14;75.10
55540;BME280;41384;51.418;7.286;2022-07-21T08:05:54;100097.69;;;23.17;74.49
55540;BME280;41384;51.418;7.286;2022-07-21T08:08:20;100107.31;;;23.53;73.47
55540;BME280;41384;51.418;7.286;2022-07-21T08:10:46;100101.34;;;23.31;74.04
55540;BME280;41384;51.418;7.286;2022-07-21T08:13:14;100099.03;;;23.49;73.11
55540;BME280;41384;51.418;7.286;2022-07-21T08:15:40;100099.31;;;23.72;73.06
55540;BME280;41384;51.418;7.286;2022-07-21T08:18:06;100104.34;;;24.03;71.10
55540;BME280;41384;51.418;7.286;2022-07-21T08:20:33;100100.84;;;24.22;68.87
55540;BME280;41384;51.418;7.286;2022-07-21T08:22:58;100110.50;;;23.30;70.19
55540;BME280;41384;51.418;7.286;2022-07-21T08:25:23;100113.47;;;23.58;69.94
55540;BME280;41384;51.418;7.286;2022-07-21T08:27:48;100104.66;;;24.40;67.28
55540;BME280;41384;51.418;7.286;2022-07-21T08:30:14;100109.03;;;24.36;66.61
55540;BME280;41384;51.418;7.286;2022-07-21T08:32:39;100107.66;;;24.38;66.41
55540;BME280;41384;51.418;7.286;2022-07-21T08:35:05;100112.44;;;24.60;65.61
55540;BME280;41384;51.418;7.286;2022-07-21T08:37:34;100113.63;;;24.35;65.33
55540;BME280;41384;51.418;7.286;2022-07-21T08:40:00;100109.19;;;24.44;65.31
55540;BME280;41384;51.418;7.286;2022-07-21T08:42:26;100100.50;;;24.47;64.19
55540;BME280;41384;51.418;7.286;2022-07-21T08:44:52;100101.66;;;24.80;64.00
55540;BME280;41384;51.418;7.286;2022-07-21T08:47:17;100102.06;;;24.87;62.42
55540;BME280;41384;51.418;7.286;2022-07-21T08:49:45;100111.16;;;24.77;63.81
55540;BME280;41384;51.418;7.286;2022-07-21T08:52:10;100113.97;;;24.67;63.69
55540;BME280;41384;51.418;7.286;2022-07-21T08:54:36;100109.59;;;24.71;63.21
55540;BME280;41384;51.418;7.286;2022-07-21T08:57:01;100111.50;;;24.89;63.42
55540;BME280;41384;51.418;7.286;2022-07-21T08:59:27;100109.38;;;24.29;64.71
55540;BME280;41384;51.418;7.286;2022-07-21T09:01:52;100114.34;;;24.22;65.10
55540;BME280;41384;51.418;7.286;2022-07-21T09:04:26;100118.56;;;23.84;65.84
55540;BME280;41384;51.418;7.286;2022-07-21T09:06:57;100119.53;;;23.94;65.95
55540;BME280;41384;51.418;7.286;2022-07-21T09:09:24;100111.75;;;23.43;66.47
55540;BME280;41384;51.418;7.286;2022-07-21T09:11:50;100113.34;;;23.69;65.75
55540;BME280;41384;51.418;7.286;2022-07-21T09:14:19;100104.34;;;24.03;66.46
55540;BME280;41384;51.418;7.286;2022-07-21T09:16:52;100112.09;;;24.10;66.53
55540;BME280;41384;51.418;7.286;2022-07-21T09:19:28;100101.88;;;24.64;64.45
55540;BME280;41384;51.418;7.286;2022-07-21T09:21:56;100107.84;;;24.23;64.80
55540;BME280;41384;51.418;7.286;2022-07-21T09:24:27;100099.78;;;24.42;65.16
55540;BME280;41384;51.418;7.286;2022-07-21T09:27:13;100102.75;;;24.59;63.78
55540;BME280;41384;51.418;7.286;2022-07-21T09:29:47;100107.56;;;24.62;63.39
55540;BME280;41384;51.418;7.286;2022-07-21T09:32:50;100105.94;;;25.00;62.28
55540;BME280;41384;51.418;7.286;2022-07-21T09:35:12;100104.16;;;24.76;62.35
55540;BME280;41384;51.418;7.286;2022-07-21T09:37:39;100100.94;;;24.55;62.67
55540;BME280;41384;51.418;7.286;2022-07-21T09:40:06;100095.75;;;24.58;63.03
55540;BME280;41384;51.418;7.286;2022-07-21T09:42:41;100105.00;;;24.90;61.74
55540;BME280;41384;51.418;7.286;2022-07-21T09:45:09;100105.78;;;25.24;60.79
55540;BME280;41384;51.418;7.286;2022-07-21T09:47:35;100110.09;;;25.25;60.91
55540;BME280;41384;51.418;7.286;2022-07-21T09:50:03;100111.88;;;25.30;60.52
55540;BME280;41384;51.418;7.286;2022-07-21T09:52:30;100114.38;;;24.93;62.02
55540;BME280;41384;51.418;7.286;2022-07-21T09:55:04;100109.81;;;25.08;62.80
55540;BME280;41384;51.418;7.286;2022-07-21T09:57:30;100100.34;;;24.58;62.80
55540;BME280;41384;51.418;7.286;2022-07-21T09:59:56;100109.84;;;24.74;63.33
55540;BME280;41384;51.418;7.286;2022-07-21T10:02:25;100115.28;;;24.88;62.92
55540;BME280;41384;51.418;7.286;2022-07-21T10:04:56;100115.53;;;24.54;63.04
55540;BME280;41384;51.418;7.286;2022-07-21T10:07:22;100110.16;;;24.68;62.03
55540;BME280;41384;51.418;7.286;2022-07-21T10:09:48;100108.06;;;24.84;62.15
55540;BME280;41384;51.418;7.286;2022-07-21T10:12:14;100114.22;;;25.03;60.96
55540;BME280;41384;51.418;7.286;2022-07-21T10:14:40;100120.25;;;24.62;61.84
55540;BME280;41384;51.418;7.286;2022-07-21T10:17:06;100115.22;;;24.94;61.11
55540;BME280;41384;51.418;7.286;2022-07-21T10:19:56;100119.03;;;24.73;59.90
55540;BME280;41384;51.418;7.286;2022-07-21T10:25:15;100120.28;;;24.81;59.57
55540;BME280;41384;51.418;7.286;2022-07-21T10:30:43;100121.97;;;25.24;58.76
55540;BME280;41384;51.418;7.286;2022-07-21T10:33:09;100120.22;;;25.00;59.14
55540;BME280;41384;51.418;7.286;2022-07-21T10:35:40;100118.25;;;24.68;59.54
55540;BME280;41384;51.418;7.286;2022-07-21T10:38:05;100113.28;;;24.94;57.65
55540;BME280;41384;51.418;7.286;2022-07-21T10:48:01;100128.06;;;24.44;58.92
55540;BME280;41384;51.418;7.286;2022-07-21T10:50:31;100133.16;;;24.27;59.04
55540;BME280;41384;51.418;7.286;2022-07-21T10:53:03;100130.44;;;24.08;59.93
55540;BME280;41384;51.418;7.286;2022-07-21T10:55:30;100136.91;;;24.31;58.81
55540;BME280;41384;51.418;7.286;2022-07-21T11:00:34;100132.56;;;24.68;57.64
55540;BME280;41384;51.418;7.286;2022-07-21T11:03:12;100132.94;;;24.61;58.90
55540;BME280;41384;51.418;7.286;2022-07-21T11:08:42;100139.00;;;24.34;59.20
55540;BME280;41384;51.418;7.286;2022-07-21T11:11:14;100141.38;;;24.16;59.85
55540;BME280;41384;51.418;7.286;2022-07-21T11:22:12;100141.25;;;23.54;65.03
55540;BME280;41384;51.418;7.286;2022-07-21T11:24:40;100141.09;;;23.94;64.50
55540;BME280;41384;51.418;7.286;2022-07-21T11:27:08;100146.53;;;23.64;65.30
55540;BME280;41384;51.418;7.286;2022-07-21T11:29:36;100150.28;;;23.39;66.11
55540;BME280;41384;51.418;7.286;2022-07-21T11:32:02;100151.34;;;23.43;67.08
55540;BME280;41384;51.418;7.286;2022-07-21T11:34:46;100147.69;;;23.28;67.55
55540;BME280;41384;51.418;7.286;2022-07-21T11:37:15;100141.00;;;23.26;69.06
55540;BME280;41384;51.418;7.286;2022-07-21T11:39:40;100145.03;;;23.23;69.82
55540;BME280;41384;51.418;7.286;2022-07-21T11:42:09;100145.78;;;23.34;69.01
55540;BME280;41384;51.418;7.286;2022-07-21T11:44:35;100150.44;;;22.83;70.54
55540;BME280;41384;51.418;7.286;2022-07-21T11:47:02;100148.72;;;23.03;70.46
55540;BME280;41384;51.418;7.286;2022-07-21T11:49:28;100148.66;;;23.08;71.72
55540;BME280;41384;51.418;7.286;2022-07-21T11:51:55;100152.56;;;23.26;71.61
55540;BME280;41384;51.418;7.286;2022-07-21T11:56:55;100146.78;;;23.68;70.89
55540;BME280;41384;51.418;7.286;2022-07-21T11:59:22;100140.22;;;23.50;71.48
55540;BME280;41384;51.418;7.286;2022-07-21T12:02:03;100147.66;;;23.34;74.05
55540;BME280;41384;51.418;7.286;2022-07-21T12:04:43;100140.84;;;23.41;74.40
55540;BME280;41384;51.418;7.286;2022-07-21T12:07:29;100149.69;;;23.47;73.72
55540;BME280;41384;51.418;7.286;2022-07-21T12:10:16;100148.31;;;23.50;74.83
55540;BME280;41384;51.418;7.286;2022-07-21T12:12:46;100142.16;;;23.14;76.49
55540;BME280;41384;51.418;7.286;2022-07-21T12:15:21;100142.56;;;23.32;76.90
55540;BME280;41384;51.418;7.286;2022-07-21T12:20:29;100152.47;;;23.37;77.56
55540;BME280;41384;51.418;7.286;2022-07-21T12:22:55;100147.28;;;23.11;78.94
55540;BME280;41384;51.418;7.286;2022-07-21T12:25:35;100150.19;;;23.20;79.06
55540;BME280;41384;51.418;7.286;2022-07-21T12:28:01;100147.28;;;22.76;80.79
55540;BME280;41384;51.418;7.286;2022-07-21T12:30:37;100154.63;;;23.05;81.67
55540;BME280;41384;51.418;7.286;2022-07-21T12:33:12;100155.22;;;22.92;79.66
55540;BME280;41384;51.418;7.286;2022-07-21T12:35:40;100154.78;;;23.14;79.58
55540;BME280;41384;51.418;7.286;2022-07-21T12:38:08;100158.72;;;23.32;79.23
55540;BME280;41384;51.418;7.286;2022-07-21T12:40:36;100156.91;;;23.17;80.78
55540;BME280;41384;51.418;7.286;2022-07-21T12:43:10;100145.09;;;23.13;79.78
55540;BME280;41384;51.418;7.286;2022-07-21T12:45:57;100156.28;;;22.96;81.78
55540;BME280;41384;51.418;7.286;2022-07-21T12:53:50;100143.34;;;22.63;83.66
55540;BME280;41384;51.418;7.286;2022-07-21T12:56:26;100144.53;;;22.81;83.40
55540;BME280;41384;51.418;7.286;2022-07-21T12:58:53;100145.09;;;23.13;81.98
55540;BME280;41384;51.418;7.286;2022-07-21T13:01:21;100142.09;;;23.20;80.37
55540;BME280;41384;51.418;7.286;2022-07-21T13:03:47;100141.00;;;23.26;80.18
55540;BME280;41384;51.418;7.286;2022-07-21T13:06:13;100138.97;;;22.72;84.32
55540;BME280;41384;51.418;7.286;2022-07-21T13:08:40;100138.13;;;23.12;84.76
55540;BME280;41384;51.418;7.286;2022-07-21T13:11:06;100139.50;;;23.09;83.75
55540;BME280;41384;51.418;7.286;2022-07-21T13:13:32;100143.03;;;23.05;83.22
55540;BME280;41384;51.418;7.286;2022-07-21T13:15:58;100144.16;;;22.98;83.75
55540;BME280;41384;51.418;7.286;2022-07-21T13:18:24;100140.03;;;22.77;83.75
55540;BME280;41384;51.418;7.286;2022-07-21T13:20:50;100144.94;;;22.64;84.88
55540;BME280;41384;51.418;7.286;2022-07-21T13:23:16;100141.59;;;22.83;84.99
55540;BME280;41384;51.418;7.286;2022-07-21T13:25:41;100142.03;;;22.55;86.48
55540;BME280;41384;51.418;7.286;2022-07-21T13:28:07;100148.47;;;22.59;86.34